sensor_id;sensor_type;location;lat;lon;timestamp;P1;durP1;ratioP1;P2;durP2;ratioP2
20379;SDS011;10349;48.666;8.948;2023-03-19T00:02:21;7.20;;;5.83;;
20379;SDS011;10349;48.666;8.948;2023-03-19T00:04:47;7.67;;;5.47;;
20379;SDS011;10349;48.666;8.948;2023-03-19T00:07:12;6.10;;;5.60;;
20379;SDS011;10349;48.666;8.948;2023-03-19T00:09:39;5.43;;;4.80;;
20379;SDS011;10349;48.666;8.948;2023-03-19T00:12:05;6.80;;;5.70;;
20379;SDS011;10349;48.666;8.948;2023-03-19T00:14:31;5.67;;;5.23;;
20379;SDS011;10349;48.666;8.948;2023-03-19T00:16:57;7.60;;;5.87;;
20379;SDS011;10349;48.666;8.948;2023-03-19T00:19:23;9.40;;;5.33;;
20379;SDS011;10349;48.666;8.948;2023-03-19T00:21:49;8.27;;;6.10;;
20379;SDS011;10349;48.666;8.948;2023-03-19T00:24:15;7.00;;;6.40;;
20379;SDS011;10349;48.666;8.948;2023-03-19T00:26:41;5.57;;;5.07;;
20379;SDS011;10349;48.666;8.948;2023-03-19T00:29:07;6.20;;;5.70;;
20379;SDS011;10349;48.666;8.948;2023-03-19T00:31:33;6.20;;;5.60;;
20379;SDS011;10349;48.666;8.948;2023-03-19T00:33:59;6.07;;;5.57;;
20379;SDS011;10349;48.666;8.948;2023-03-19T00:36:27;6.73;;;6.10;;
20379;SDS011;10349;48.666;8.948;2023-03-19T00:38:53;7.00;;;6.40;;
20379;SDS011;10349;48.666;8.948;2023-03-19T00:41:19;6.83;;;6.10;;
20379;SDS011;10349;48.666;8.948;2023-03-19T00:43:46;5.60;;;5.17;;
20379;SDS011;10349;48.666;8.948;2023-03-19T00:46:16;4.97;;;4.60;;
20379;SDS011;10349;48.666;8.948;2023-03-19T00:48:42;4.63;;;4.10;;
20379;SDS011;10349;48.666;8.948;2023-03-19T00:51:08;5.10;;;4.60;;
20379;SDS011;10349;48.666;8.948;2023-03-19T00:53:39;6.60;;;4.23;;
20379;SDS011;10349;48.666;8.948;2023-03-19T00:56:07;7.10;;;5.73;;
20379;SDS011;10349;48.666;8.948;2023-03-19T00:58:34;5.53;;;4.97;;
20379;SDS011;10349;48.666;8.948;2023-03-19T01:01:02;6.80;;;5.30;;
20379;SDS011;10349;48.666;8.948;2023-03-19T01:03:29;7.63;;;6.37;;
20379;SDS011;10349;48.666;8.948;2023-03-19T01:05:56;6.23;;;5.53;;
20379;SDS011;10349;48.666;8.948;2023-03-19T01:08:23;4.70;;;4.40;;
20379;SDS011;10349;48.666;8.948;2023-03-19T01:10:49;5.83;;;5.40;;
20379;SDS011;10349;48.666;8.948;2023-03-19T01:13:15;13.20;;;4.90;;
20379;SDS011;10349;48.666;8.948;2023-03-19T01:15:41;5.77;;;5.30;;
20379;SDS011;10349;48.666;8.948;2023-03-19T01:18:08;7.17;;;6.10;;
20379;SDS011;10349;48.666;8.948;2023-03-19T01:20:36;9.03;;;5.80;;
20379;SDS011;10349;48.666;8.948;2023-03-19T01:23:04;6.23;;;5.47;;
20379;SDS011;10349;48.666;8.948;2023-03-19T01:25:30;6.80;;;6.07;;
20379;SDS011;10349;48.666;8.948;2023-03-19T01:28:00;7.87;;;7.07;;
20379;SDS011;10349;48.666;8.948;2023-03-19T01:30:27;9.30;;;5.80;;
20379;SDS011;10349;48.666;8.948;2023-03-19T01:33:10;8.80;;;5.60;;
20379;SDS011;10349;48.666;8.948;2023-03-19T01:35:45;8.27;;;6.80;;
20379;SDS011;10349;48.666;8.948;2023-03-19T01:38:15;6.10;;;5.40;;
20379;SDS011;10349;48.666;8.948;2023-03-19T01:40:43;5.90;;;5.40;;
20379;SDS011;10349;48.666;8.948;2023-03-19T01:45:53;7.70;;;5.57;;
20379;SDS011;10349;48.666;8.948;2023-03-19T01:48:47;5.10;;;4.60;;
20379;SDS011;10349;48.666;8.948;2023-03-19T01:51:18;6.03;;;5.03;;
20379;SDS011;10349;48.666;8.948;2023-03-19T01:54:19;6.87;;;5.53;;
20379;SDS011;10349;48.666;8.948;2023-03-19T01:57:07;6.27;;;4.90;;
20379;SDS011;10349;48.666;8.948;2023-03-19T02:00:03;6.00;;;5.40;;
20379;SDS011;10349;48.666;8.948;2023-03-19T02:02:45;6.23;;;5.27;;
20379;SDS011;10349;48.666;8.948;2023-03-19T02:05:22;9.43;;;5.53;;
20379;SDS011;10349;48.666;8.948;2023-03-19T02:07:53;6.17;;;5.10;;
20379;SDS011;10349;48.666;8.948;2023-03-19T02:10:22;5.23;;;4.73;;
20379;SDS011;10349;48.666;8.948;2023-03-19T02:12:49;4.97;;;4.47;;
20379;SDS011;10349;48.666;8.948;2023-03-19T02:15:15;5.27;;;4.63;;
20379;SDS011;10349;48.666;8.948;2023-03-19T02:17:41;5.17;;;4.53;;
20379;SDS011;10349;48.666;8.948;2023-03-19T02:22:59;5.13;;;4.73;;
20379;SDS011;10349;48.666;8.948;2023-03-19T02:26:00;5.40;;;4.70;;
20379;SDS011;10349;48.666;8.948;2023-03-19T02:28:31;7.07;;;5.57;;
20379;SDS011;10349;48.666;8.948;2023-03-19T02:30:59;5.67;;;5.07;;
20379;SDS011;10349;48.666;8.948;2023-03-19T02:33:28;5.07;;;4.77;;
20379;SDS011;10349;48.666;8.948;2023-03-19T02:35:54;8.33;;;5.70;;
20379;SDS011;10349;48.666;8.948;2023-03-19T02:38:21;5.10;;;4.80;;
20379;SDS011;10349;48.666;8.948;2023-03-19T02:43:18;5.27;;;4.63;;
20379;SDS011;10349;48.666;8.948;2023-03-19T02:45:46;8.57;;;6.77;;
20379;SDS011;10349;48.666;8.948;2023-03-19T02:48:11;5.00;;;4.70;;
20379;SDS011;10349;48.666;8.948;2023-03-19T02:50:37;7.67;;;5.37;;
20379;SDS011;10349;48.666;8.948;2023-03-19T02:53:03;5.20;;;4.90;;
20379;SDS011;10349;48.666;8.948;2023-03-19T02:55:28;5.17;;;4.77;;
20379;SDS011;10349;48.666;8.948;2023-03-19T02:57:54;5.70;;;4.60;;
20379;SDS011;10349;48.666;8.948;2023-03-19T03:00:20;5.60;;;5.10;;
20379;SDS011;10349;48.666;8.948;2023-03-19T03:02:46;5.80;;;5.30;;
20379;SDS011;10349;48.666;8.948;2023-03-19T03:05:11;6.73;;;5.70;;
20379;SDS011;10349;48.666;8.948;2023-03-19T03:07:38;6.70;;;5.40;;
20379;SDS011;10349;48.666;8.948;2023-03-19T03:10:05;5.30;;;4.80;;
20379;SDS011;10349;48.666;8.948;2023-03-19T03:12:32;7.30;;;5.47;;
20379;SDS011;10349;48.666;8.948;2023-03-19T03:14:58;5.33;;;4.83;;
20379;SDS011;10349;48.666;8.948;2023-03-19T03:17:24;4.90;;;4.53;;
20379;SDS011;10349;48.666;8.948;2023-03-19T03:19:49;4.80;;;4.50;;
20379;SDS011;10349;48.666;8.948;2023-03-19T03:22:15;6.13;;;4.00;;
20379;SDS011;10349;48.666;8.948;2023-03-19T03:24:41;6.87;;;5.70;;
20379;SDS011;10349;48.666;8.948;2023-03-19T03:27:07;6.43;;;5.83;;
20379;SDS011;10349;48.666;8.948;2023-03-19T03:29:33;6.40;;;5.30;;
20379;SDS011;10349;48.666;8.948;2023-03-19T03:32:00;5.90;;;5.43;;
20379;SDS011;10349;48.666;8.948;2023-03-19T03:34:26;5.97;;;5.30;;
20379;SDS011;10349;48.666;8.948;2023-03-19T03:36:52;5.90;;;5.30;;
20379;SDS011;10349;48.666;8.948;2023-03-19T03:39:17;5.53;;;5.13;;
20379;SDS011;10349;48.666;8.948;2023-03-19T03:41:43;6.27;;;5.63;;
20379;SDS011;10349;48.666;8.948;2023-03-19T03:44:10;6.33;;;5.70;;
20379;SDS011;10349;48.666;8.948;2023-03-19T03:46:38;7.57;;;5.60;;
20379;SDS011;10349;48.666;8.948;2023-03-19T03:49:05;6.43;;;5.87;;
20379;SDS011;10349;48.666;8.948;2023-03-19T03:51:30;12.90;;;6.53;;
20379;SDS011;10349;48.666;8.948;2023-03-19T03:53:56;8.23;;;5.40;;
20379;SDS011;10349;48.666;8.948;2023-03-19T03:56:22;6.37;;;5.80;;
20379;SDS011;10349;48.666;8.948;2023-03-19T03:58:48;5.43;;;4.97;;
20379;SDS011;10349;48.666;8.948;2023-03-19T04:01:14;7.07;;;6.37;;
20379;SDS011;10349;48.666;8.948;2023-03-19T04:03:42;5.33;;;4.93;;
20379;SDS011;10349;48.666;8.948;2023-03-19T04:06:11;6.83;;;6.17;;
20379;SDS011;10349;48.666;8.948;2023-03-19T04:08:41;5.30;;;4.90;;
20379;SDS011;10349;48.666;8.948;2023-03-19T04:11:07;5.43;;;4.93;;
20379;SDS011;10349;48.666;8.948;2023-03-19T04:13:34;5.23;;;4.93;;
20379;SDS011;10349;48.666;8.948;2023-03-19T04:16:05;5.33;;;4.90;;
20379;SDS011;10349;48.666;8.948;2023-03-19T04:18:33;5.73;;;5.10;;
20379;SDS011;10349;48.666;8.948;2023-03-19T04:20:59;5.90;;;5.30;;
20379;SDS011;10349;48.666;8.948;2023-03-19T04:23:25;7.10;;;5.67;;
20379;SDS011;10349;48.666;8.948;2023-03-19T04:25:52;5.83;;;5.33;;
20379;SDS011;10349;48.666;8.948;2023-03-19T04:28:21;6.30;;;5.70;;
20379;SDS011;10349;48.666;8.948;2023-03-19T04:30:47;7.00;;;5.70;;
20379;SDS011;10349;48.666;8.948;2023-03-19T04:33:13;7.27;;;4.87;;
20379;SDS011;10349;48.666;8.948;2023-03-19T04:35:38;9.40;;;5.73;;
20379;SDS011;10349;48.666;8.948;2023-03-19T04:38:04;5.97;;;5.50;;
20379;SDS011;10349;48.666;8.948;2023-03-19T04:40:30;8.07;;;6.33;;
20379;SDS011;10349;48.666;8.948;2023-03-19T04:42:56;6.10;;;5.23;;
20379;SDS011;10349;48.666;8.948;2023-03-19T04:45:32;5.87;;;5.20;;
20379;SDS011;10349;48.666;8.948;2023-03-19T04:47:58;5.80;;;5.30;;
20379;SDS011;10349;48.666;8.948;2023-03-19T04:50:25;8.60;;;6.30;;
20379;SDS011;10349;48.666;8.948;2023-03-19T04:52:51;5.80;;;5.40;;
20379;SDS011;10349;48.666;8.948;2023-03-19T04:55:17;6.50;;;5.93;;
20379;SDS011;10349;48.666;8.948;2023-03-19T04:57:52;6.40;;;5.90;;
20379;SDS011;10349;48.666;8.948;2023-03-19T05:00:21;6.57;;;6.00;;
20379;SDS011;10349;48.666;8.948;2023-03-19T05:02:47;10.30;;;6.13;;
20379;SDS011;10349;48.666;8.948;2023-03-19T05:05:13;6.60;;;6.10;;
20379;SDS011;10349;48.666;8.948;2023-03-19T05:07:39;5.80;;;5.30;;
20379;SDS011;10349;48.666;8.948;2023-03-19T05:10:07;5.83;;;5.00;;
20379;SDS011;10349;48.666;8.948;2023-03-19T05:12:34;10.23;;;7.40;;
20379;SDS011;10349;48.666;8.948;2023-03-19T05:15:00;10.10;;;5.60;;
20379;SDS011;10349;48.666;8.948;2023-03-19T05:17:30;6.37;;;5.77;;
20379;SDS011;10349;48.666;8.948;2023-03-19T05:20:12;6.57;;;5.97;;
20379;SDS011;10349;48.666;8.948;2023-03-19T05:22:44;9.77;;;6.37;;
20379;SDS011;10349;48.666;8.948;2023-03-19T05:25:14;8.17;;;5.23;;
20379;SDS011;10349;48.666;8.948;2023-03-19T05:27:41;8.93;;;5.83;;
20379;SDS011;10349;48.666;8.948;2023-03-19T05:30:09;6.70;;;6.03;;
20379;SDS011;10349;48.666;8.948;2023-03-19T05:32:46;6.07;;;5.50;;
20379;SDS011;10349;48.666;8.948;2023-03-19T05:35:22;7.10;;;6.40;;
20379;SDS011;10349;48.666;8.948;2023-03-19T05:37:48;6.47;;;5.87;;
20379;SDS011;10349;48.666;8.948;2023-03-19T05:40:14;7.00;;;6.07;;
20379;SDS011;10349;48.666;8.948;2023-03-19T05:42:43;10.50;;;6.07;;
20379;SDS011;10349;48.666;8.948;2023-03-19T05:45:09;8.47;;;6.70;;
20379;SDS011;10349;48.666;8.948;2023-03-19T05:47:41;12.07;;;6.20;;
20379;SDS011;10349;48.666;8.948;2023-03-19T05:50:09;7.20;;;6.50;;
20379;SDS011;10349;48.666;8.948;2023-03-19T05:52:36;7.23;;;6.50;;
20379;SDS011;10349;48.666;8.948;2023-03-19T05:55:02;6.73;;;6.20;;
20379;SDS011;10349;48.666;8.948;2023-03-19T05:57:43;9.10;;;6.97;;
20379;SDS011;10349;48.666;8.948;2023-03-19T06:00:16;10.23;;;6.30;;
20379;SDS011;10349;48.666;8.948;2023-03-19T06:02:44;7.13;;;6.53;;
20379;SDS011;10349;48.666;8.948;2023-03-19T06:05:47;6.97;;;6.30;;
20379;SDS011;10349;48.666;8.948;2023-03-19T06:08:23;7.80;;;7.10;;
20379;SDS011;10349;48.666;8.948;2023-03-19T06:11:11;7.73;;;6.37;;
20379;SDS011;10349;48.666;8.948;2023-03-19T06:13:37;7.80;;;6.80;;
20379;SDS011;10349;48.666;8.948;2023-03-19T06:16:05;7.47;;;6.77;;
20379;SDS011;10349;48.666;8.948;2023-03-19T06:18:34;7.77;;;6.80;;
20379;SDS011;10349;48.666;8.948;2023-03-19T06:21:05;6.40;;;5.90;;
20379;SDS011;10349;48.666;8.948;2023-03-19T06:23:32;6.33;;;5.83;;
20379;SDS011;10349;48.666;8.948;2023-03-19T06:26:00;7.13;;;6.07;;
20379;SDS011;10349;48.666;8.948;2023-03-19T06:28:30;7.23;;;6.50;;
20379;SDS011;10349;48.666;8.948;2023-03-19T06:30:57;6.07;;;5.57;;
20379;SDS011;10349;48.666;8.948;2023-03-19T06:33:45;8.10;;;7.37;;
20379;SDS011;10349;48.666;8.948;2023-03-19T06:36:11;16.83;;;6.67;;
20379;SDS011;10349;48.666;8.948;2023-03-19T06:38:37;6.40;;;5.63;;
20379;SDS011;10349;48.666;8.948;2023-03-19T06:41:03;9.90;;;6.00;;
20379;SDS011;10349;48.666;8.948;2023-03-19T06:43:29;7.30;;;6.30;;
20379;SDS011;10349;48.666;8.948;2023-03-19T06:45:55;5.80;;;5.40;;
20379;SDS011;10349;48.666;8.948;2023-03-19T06:48:21;5.93;;;5.43;;
20379;SDS011;10349;48.666;8.948;2023-03-19T06:50:47;6.37;;;5.70;;
20379;SDS011;10349;48.666;8.948;2023-03-19T06:53:13;6.90;;;6.30;;
20379;SDS011;10349;48.666;8.948;2023-03-19T06:55:39;6.30;;;5.17;;
20379;SDS011;10349;48.666;8.948;2023-03-19T06:58:05;6.17;;;5.57;;
20379;SDS011;10349;48.666;8.948;2023-03-19T07:00:31;7.67;;;6.97;;
20379;SDS011;10349;48.666;8.948;2023-03-19T07:02:57;6.00;;;5.60;;
20379;SDS011;10349;48.666;8.948;2023-03-19T07:05:24;6.87;;;6.17;;
20379;SDS011;10349;48.666;8.948;2023-03-19T07:07:49;9.23;;;8.33;;
20379;SDS011;10349;48.666;8.948;2023-03-19T07:10:19;7.70;;;7.00;;
20379;SDS011;10349;48.666;8.948;2023-03-19T07:12:46;6.03;;;5.53;;
20379;SDS011;10349;48.666;8.948;2023-03-19T07:15:12;26.13;;;8.87;;
20379;SDS011;10349;48.666;8.948;2023-03-19T07:17:37;9.53;;;7.43;;
20379;SDS011;10349;48.666;8.948;2023-03-19T07:20:03;7.40;;;6.80;;
20379;SDS011;10349;48.666;8.948;2023-03-19T07:22:29;12.50;;;6.97;;
20379;SDS011;10349;48.666;8.948;2023-03-19T07:24:55;9.83;;;7.27;;
20379;SDS011;10349;48.666;8.948;2023-03-19T07:27:21;10.03;;;6.83;;
20379;SDS011;10349;48.666;8.948;2023-03-19T07:29:46;7.67;;;6.77;;
20379;SDS011;10349;48.666;8.948;2023-03-19T07:32:13;8.10;;;6.63;;
20379;SDS011;10349;48.666;8.948;2023-03-19T07:34:40;6.60;;;5.90;;
20379;SDS011;10349;48.666;8.948;2023-03-19T07:37:06;5.30;;;4.80;;
20379;SDS011;10349;48.666;8.948;2023-03-19T07:39:32;5.60;;;5.03;;
20379;SDS011;10349;48.666;8.948;2023-03-19T07:41:58;5.93;;;5.10;;
20379;SDS011;10349;48.666;8.948;2023-03-19T07:44:23;6.40;;;5.50;;
20379;SDS011;10349;48.666;8.948;2023-03-19T07:46:49;6.83;;;5.37;;
20379;SDS011;10349;48.666;8.948;2023-03-19T07:49:15;5.30;;;4.90;;
20379;SDS011;10349;48.666;8.948;2023-03-19T07:51:40;5.33;;;4.83;;
20379;SDS011;10349;48.666;8.948;2023-03-19T07:54:06;6.00;;;4.60;;
20379;SDS011;10349;48.666;8.948;2023-03-19T07:56:31;5.13;;;4.63;;
20379;SDS011;10349;48.666;8.948;2023-03-19T07:58:57;5.17;;;4.67;;
20379;SDS011;10349;48.666;8.948;2023-03-19T08:01:24;5.10;;;4.57;;
20379;SDS011;10349;48.666;8.948;2023-03-19T08:03:50;4.40;;;4.10;;
20379;SDS011;10349;48.666;8.948;2023-03-19T08:06:16;6.03;;;4.70;;
20379;SDS011;10349;48.666;8.948;2023-03-19T08:08:42;6.33;;;5.33;;
20379;SDS011;10349;48.666;8.948;2023-03-19T08:11:07;5.63;;;5.13;;
20379;SDS011;10349;48.666;8.948;2023-03-19T08:13:34;4.77;;;4.47;;
20379;SDS011;10349;48.666;8.948;2023-03-19T08:16:00;6.60;;;4.10;;
20379;SDS011;10349;48.666;8.948;2023-03-19T08:18:25;7.47;;;4.80;;
20379;SDS011;10349;48.666;8.948;2023-03-19T08:20:51;5.27;;;4.87;;
20379;SDS011;10349;48.666;8.948;2023-03-19T08:23:17;7.47;;;5.40;;
20379;SDS011;10349;48.666;8.948;2023-03-19T08:25:43;6.40;;;5.37;;
20379;SDS011;10349;48.666;8.948;2023-03-19T08:28:09;5.70;;;5.07;;
20379;SDS011;10349;48.666;8.948;2023-03-19T08:30:36;4.80;;;4.40;;
20379;SDS011;10349;48.666;8.948;2023-03-19T08:33:02;5.70;;;5.20;;
20379;SDS011;10349;48.666;8.948;2023-03-19T08:35:28;6.17;;;4.90;;
20379;SDS011;10349;48.666;8.948;2023-03-19T08:37:54;5.50;;;4.77;;
20379;SDS011;10349;48.666;8.948;2023-03-19T08:40:20;6.63;;;6.00;;
20379;SDS011;10349;48.666;8.948;2023-03-19T08:42:47;4.70;;;4.10;;
20379;SDS011;10349;48.666;8.948;2023-03-19T08:45:13;5.13;;;4.73;;
20379;SDS011;10349;48.666;8.948;2023-03-19T08:47:41;4.40;;;4.00;;
20379;SDS011;10349;48.666;8.948;2023-03-19T08:50:08;4.13;;;3.83;;
20379;SDS011;10349;48.666;8.948;2023-03-19T08:52:34;5.77;;;3.63;;
20379;SDS011;10349;48.666;8.948;2023-03-19T08:55:00;4.47;;;3.47;;
20379;SDS011;10349;48.666;8.948;2023-03-19T08:57:26;4.20;;;3.90;;
20379;SDS011;10349;48.666;8.948;2023-03-19T08:59:51;4.67;;;4.27;;
20379;SDS011;10349;48.666;8.948;2023-03-19T09:02:17;4.67;;;4.27;;
20379;SDS011;10349;48.666;8.948;2023-03-19T09:04:43;5.93;;;4.00;;
20379;SDS011;10349;48.666;8.948;2023-03-19T09:07:10;5.00;;;4.60;;
20379;SDS011;10349;48.666;8.948;2023-03-19T09:09:38;6.03;;;4.77;;
20379;SDS011;10349;48.666;8.948;2023-03-19T09:12:05;4.30;;;3.90;;
20379;SDS011;10349;48.666;8.948;2023-03-19T09:14:31;3.80;;;3.50;;
20379;SDS011;10349;48.666;8.948;2023-03-19T09:16:58;3.40;;;3.20;;
20379;SDS011;10349;48.666;8.948;2023-03-19T09:19:24;3.73;;;3.43;;
20379;SDS011;10349;48.666;8.948;2023-03-19T09:21:50;3.90;;;3.60;;
20379;SDS011;10349;48.666;8.948;2023-03-19T09:24:15;6.70;;;3.17;;
20379;SDS011;10349;48.666;8.948;2023-03-19T09:26:43;3.40;;;3.20;;
20379;SDS011;10349;48.666;8.948;2023-03-19T09:29:09;2.87;;;2.60;;
20379;SDS011;10349;48.666;8.948;2023-03-19T09:31:36;3.40;;;3.10;;
20379;SDS011;10349;48.666;8.948;2023-03-19T09:34:02;2.57;;;2.37;;
20379;SDS011;10349;48.666;8.948;2023-03-19T09:36:28;2.70;;;2.50;;
20379;SDS011;10349;48.666;8.948;2023-03-19T09:38:53;2.40;;;2.20;;
20379;SDS011;10349;48.666;8.948;2023-03-19T09:49:29;3.27;;;3.07;;
20379;SDS011;10349;48.666;8.948;2023-03-19T09:57:09;6.20;;;2.90;;
20379;SDS011;10349;48.666;8.948;2023-03-19T09:59:35;2.73;;;2.53;;
20379;SDS011;10349;48.666;8.948;2023-03-19T10:02:19;4.77;;;2.67;;
20379;SDS011;10349;48.666;8.948;2023-03-19T10:05:00;3.53;;;2.90;;
20379;SDS011;10349;48.666;8.948;2023-03-19T10:10:17;2.90;;;2.50;;
20379;SDS011;10349;48.666;8.948;2023-03-19T10:15:58;2.77;;;2.57;;
20379;SDS011;10349;48.666;8.948;2023-03-19T10:18:30;2.47;;;2.37;;
20379;SDS011;10349;48.666;8.948;2023-03-19T10:23:38;4.00;;;3.70;;
20379;SDS011;10349;48.666;8.948;2023-03-19T10:26:08;3.67;;;3.30;;
20379;SDS011;10349;48.666;8.948;2023-03-19T10:28:41;2.83;;;2.63;;
20379;SDS011;10349;48.666;8.948;2023-03-19T10:31:19;3.17;;;2.97;;
20379;SDS011;10349;48.666;8.948;2023-03-19T10:34:03;2.97;;;2.77;;
20379;SDS011;10349;48.666;8.948;2023-03-19T10:36:49;2.87;;;2.67;;
20379;SDS011;10349;48.666;8.948;2023-03-19T10:39:23;3.67;;;2.57;;
20379;SDS011;10349;48.666;8.948;2023-03-19T10:42:00;3.23;;;2.23;;
20379;SDS011;10349;48.666;8.948;2023-03-19T10:44:34;2.37;;;2.20;;
20379;SDS011;10349;48.666;8.948;2023-03-19T10:47:10;3.27;;;2.97;;
20379;SDS011;10349;48.666;8.948;2023-03-19T10:49:38;2.53;;;2.33;;
20379;SDS011;10349;48.666;8.948;2023-03-19T10:52:05;4.40;;;3.10;;
20379;SDS011;10349;48.666;8.948;2023-03-19T10:54:42;12.80;;;3.90;;
20379;SDS011;10349;48.666;8.948;2023-03-19T10:57:19;3.03;;;2.80;;
20379;SDS011;10349;48.666;8.948;2023-03-19T10:59:50;2.83;;;2.63;;
20379;SDS011;10349;48.666;8.948;2023-03-19T11:02:20;2.80;;;2.60;;
20379;SDS011;10349;48.666;8.948;2023-03-19T11:07:39;2.83;;;2.63;;
20379;SDS011;10349;48.666;8.948;2023-03-19T11:10:11;3.13;;;2.93;;
20379;SDS011;10349;48.666;8.948;2023-03-19T11:12:40;3.10;;;2.40;;
20379;SDS011;10349;48.666;8.948;2023-03-19T11:15:21;3.80;;;3.50;;
20379;SDS011;10349;48.666;8.948;2023-03-19T11:17:57;3.50;;;3.20;;
20379;SDS011;10349;48.666;8.948;2023-03-19T11:20:31;3.50;;;3.20;;
20379;SDS011;10349;48.666;8.948;2023-03-19T11:22:59;3.03;;;2.83;;
20379;SDS011;10349;48.666;8.948;2023-03-19T11:25:35;3.20;;;2.97;;
20379;SDS011;10349;48.666;8.948;2023-03-19T11:28:12;6.53;;;2.80;;
20379;SDS011;10349;48.666;8.948;2023-03-19T11:33:33;2.83;;;2.50;;
20379;SDS011;10349;48.666;8.948;2023-03-19T11:43:49;2.80;;;2.60;;
20379;SDS011;10349;48.666;8.948;2023-03-19T11:54:16;3.00;;;2.80;;
20379;SDS011;10349;48.666;8.948;2023-03-19T11:57:17;4.63;;;2.40;;
20379;SDS011;10349;48.666;8.948;2023-03-19T12:02:55;3.90;;;2.90;;
20379;SDS011;10349;48.666;8.948;2023-03-19T12:08:50;2.97;;;2.73;;
20379;SDS011;10349;48.666;8.948;2023-03-19T12:14:04;2.50;;;2.30;;
20379;SDS011;10349;48.666;8.948;2023-03-19T12:22:47;2.43;;;2.23;;
20379;SDS011;10349;48.666;8.948;2023-03-19T12:30:31;2.27;;;2.10;;
20379;SDS011;10349;48.666;8.948;2023-03-19T12:35:51;2.23;;;2.13;;
20379;SDS011;10349;48.666;8.948;2023-03-19T12:38:22;2.40;;;2.20;;
20379;SDS011;10349;48.666;8.948;2023-03-19T12:41:13;2.97;;;2.77;;
20379;SDS011;10349;48.666;8.948;2023-03-19T12:46:22;2.10;;;2.00;;
20379;SDS011;10349;48.666;8.948;2023-03-19T12:48:57;2.30;;;2.20;;
20379;SDS011;10349;48.666;8.948;2023-03-19T12:51:33;3.70;;;2.27;;
20379;SDS011;10349;48.666;8.948;2023-03-19T12:56:40;2.10;;;1.90;;
20379;SDS011;10349;48.666;8.948;2023-03-19T13:01:55;2.13;;;1.83;;
20379;SDS011;10349;48.666;8.948;2023-03-19T13:04:29;1.63;;;1.53;;
20379;SDS011;10349;48.666;8.948;2023-03-19T13:07:04;5.63;;;2.07;;
20379;SDS011;10349;48.666;8.948;2023-03-19T13:09:56;1.90;;;1.80;;
20379;SDS011;10349;48.666;8.948;2023-03-19T13:12:29;2.90;;;1.70;;
20379;SDS011;10349;48.666;8.948;2023-03-19T13:15:01;1.50;;;1.40;;
20379;SDS011;10349;48.666;8.948;2023-03-19T13:20:42;1.80;;;1.70;;
20379;SDS011;10349;48.666;8.948;2023-03-19T13:23:37;2.10;;;1.90;;
20379;SDS011;10349;48.666;8.948;2023-03-19T13:26:06;1.90;;;1.33;;
20379;SDS011;10349;48.666;8.948;2023-03-19T13:28:35;1.53;;;1.43;;
20379;SDS011;10349;48.666;8.948;2023-03-19T13:36:36;1.63;;;1.53;;
20379;SDS011;10349;48.666;8.948;2023-03-19T13:39:11;1.57;;;1.47;;
20379;SDS011;10349;48.666;8.948;2023-03-19T13:57:53;1.33;;;1.23;;
20379;SDS011;10349;48.666;8.948;2023-03-19T14:03:20;1.60;;;1.20;;
20379;SDS011;10349;48.666;8.948;2023-03-19T14:05:49;1.73;;;1.50;;
20379;SDS011;10349;48.666;8.948;2023-03-19T14:08:20;3.03;;;1.60;;
20379;SDS011;10349;48.666;8.948;2023-03-19T14:10:57;3.00;;;1.50;;
20379;SDS011;10349;48.666;8.948;2023-03-19T14:16:00;4.90;;;2.27;;
20379;SDS011;10349;48.666;8.948;2023-03-19T14:18:47;1.60;;;1.50;;
20379;SDS011;10349;48.666;8.948;2023-03-19T14:21:14;1.70;;;1.30;;
20379;SDS011;10349;48.666;8.948;2023-03-19T14:23:49;3.00;;;1.73;;
20379;SDS011;10349;48.666;8.948;2023-03-19T14:26:21;6.13;;;1.50;;
20379;SDS011;10349;48.666;8.948;2023-03-19T14:28:54;2.57;;;2.03;;
20379;SDS011;10349;48.666;8.948;2023-03-19T14:31:32;2.20;;;1.67;;
20379;SDS011;10349;48.666;8.948;2023-03-19T14:34:02;1.57;;;1.00;;
20379;SDS011;10349;48.666;8.948;2023-03-19T14:36:42;1.00;;;0.90;;
20379;SDS011;10349;48.666;8.948;2023-03-19T14:39:33;1.23;;;1.13;;
20379;SDS011;10349;48.666;8.948;2023-03-19T14:45:11;1.20;;;1.03;;
20379;SDS011;10349;48.666;8.948;2023-03-19T14:50:22;1.97;;;1.60;;
20379;SDS011;10349;48.666;8.948;2023-03-19T14:53:12;1.47;;;1.37;;
20379;SDS011;10349;48.666;8.948;2023-03-19T14:55:46;1.20;;;1.10;;
20379;SDS011;10349;48.666;8.948;2023-03-19T14:58:15;1.00;;;0.90;;
20379;SDS011;10349;48.666;8.948;2023-03-19T15:00:42;2.00;;;1.43;;
20379;SDS011;10349;48.666;8.948;2023-03-19T15:05:56;1.10;;;1.00;;
20379;SDS011;10349;48.666;8.948;2023-03-19T15:08:27;2.00;;;1.60;;
20379;SDS011;10349;48.666;8.948;2023-03-19T15:14:02;1.07;;;0.97;;
20379;SDS011;10349;48.666;8.948;2023-03-19T15:19:10;1.20;;;1.00;;
20379;SDS011;10349;48.666;8.948;2023-03-19T15:21:37;6.73;;;1.00;;
20379;SDS011;10349;48.666;8.948;2023-03-19T15:24:04;1.27;;;1.17;;
20379;SDS011;10349;48.666;8.948;2023-03-19T15:26:34;1.90;;;1.13;;
20379;SDS011;10349;48.666;8.948;2023-03-19T15:29:01;1.80;;;1.00;;
20379;SDS011;10349;48.666;8.948;2023-03-19T15:31:41;1.53;;;1.43;;
20379;SDS011;10349;48.666;8.948;2023-03-19T15:36:57;2.13;;;2.03;;
20379;SDS011;10349;48.666;8.948;2023-03-19T15:39:31;3.40;;;3.20;;
20379;SDS011;10349;48.666;8.948;2023-03-19T15:42:02;3.67;;;2.83;;
20379;SDS011;10349;48.666;8.948;2023-03-19T15:44:42;4.00;;;2.90;;
20379;SDS011;10349;48.666;8.948;2023-03-19T15:47:13;3.00;;;2.80;;
20379;SDS011;10349;48.666;8.948;2023-03-19T15:49:45;2.90;;;2.70;;
20379;SDS011;10349;48.666;8.948;2023-03-19T15:52:17;2.87;;;2.67;;
20379;SDS011;10349;48.666;8.948;2023-03-19T15:54:45;3.17;;;2.97;;
20379;SDS011;10349;48.666;8.948;2023-03-19T15:57:11;3.20;;;3.00;;
20379;SDS011;10349;48.666;8.948;2023-03-19T15:59:40;3.00;;;2.80;;
20379;SDS011;10349;48.666;8.948;2023-03-19T16:02:14;3.67;;;3.30;;
20379;SDS011;10349;48.666;8.948;2023-03-19T16:04:52;6.03;;;3.20;;
20379;SDS011;10349;48.666;8.948;2023-03-19T16:07:26;3.03;;;2.83;;
20379;SDS011;10349;48.666;8.948;2023-03-19T16:13:19;3.10;;;2.90;;
20379;SDS011;10349;48.666;8.948;2023-03-19T16:18:29;3.70;;;3.40;;
20379;SDS011;10349;48.666;8.948;2023-03-19T16:23:37;3.00;;;2.80;;
20379;SDS011;10349;48.666;8.948;2023-03-19T16:26:12;2.50;;;2.40;;
20379;SDS011;10349;48.666;8.948;2023-03-19T16:28:56;2.37;;;2.27;;
20379;SDS011;10349;48.666;8.948;2023-03-19T16:31:29;7.00;;;2.73;;
20379;SDS011;10349;48.666;8.948;2023-03-19T16:33:57;2.93;;;2.73;;
20379;SDS011;10349;48.666;8.948;2023-03-19T16:36:29;2.47;;;2.27;;
20379;SDS011;10349;48.666;8.948;2023-03-19T16:38:57;2.30;;;2.10;;
20379;SDS011;10349;48.666;8.948;2023-03-19T16:41:41;2.40;;;2.30;;
20379;SDS011;10349;48.666;8.948;2023-03-19T16:44:11;2.57;;;2.17;;
20379;SDS011;10349;48.666;8.948;2023-03-19T16:46:41;2.47;;;2.27;;
20379;SDS011;10349;48.666;8.948;2023-03-19T16:49:07;2.30;;;2.10;;
20379;SDS011;10349;48.666;8.948;2023-03-19T16:51:33;2.33;;;2.10;;
20379;SDS011;10349;48.666;8.948;2023-03-19T16:54:02;2.67;;;2.47;;
20379;SDS011;10349;48.666;8.948;2023-03-19T16:56:28;2.53;;;2.27;;
20379;SDS011;10349;48.666;8.948;2023-03-19T16:58:56;2.37;;;2.17;;
20379;SDS011;10349;48.666;8.948;2023-03-19T17:01:22;2.40;;;2.03;;
20379;SDS011;10349;48.666;8.948;2023-03-19T17:03:50;3.17;;;2.97;;
20379;SDS011;10349;48.666;8.948;2023-03-19T17:06:16;3.73;;;3.43;;
20379;SDS011;10349;48.666;8.948;2023-03-19T17:08:43;2.30;;;2.20;;
20379;SDS011;10349;48.666;8.948;2023-03-19T17:11:17;5.33;;;4.40;;
20379;SDS011;10349;48.666;8.948;2023-03-19T17:13:49;9.50;;;6.80;;
20379;SDS011;10349;48.666;8.948;2023-03-19T17:16:15;2.77;;;2.30;;
20379;SDS011;10349;48.666;8.948;2023-03-19T17:18:41;2.73;;;2.00;;
20379;SDS011;10349;48.666;8.948;2023-03-19T17:21:08;2.30;;;2.10;;
20379;SDS011;10349;48.666;8.948;2023-03-19T17:23:41;1.63;;;1.53;;